Time;durP1;ratioP1;P1;durP2;ratioP2;P2;SDS_P1;SDS_P2;PMS_P1;PMS_P2;Temp;Humidity;BMP_temperature;BMP_pressure;BME280_temperature;BME280_humidity;BME280_pressure;Samples;Min_cycle;Max_cycle;Signal;HPM_P1;HPM_P2
2022/09/01 00:02:22;;;;;;;4.82;4.38;;;;;;;;;;10406943;28;20159;-73
2022/09/01 00:07:23;;;;;;;4.75;4.35;;;;;;;;;;10425592;28;20091;-72
2022/09/01 00:12:24;;;;;;;5.47;4.97;;;;;;;;;;10419709;28;20116;-73
2022/09/01 00:17:25;;;;;;;6.70;5.40;;;;;;;;;;10409819;28;20503;-72
2022/09/01 00:22:25;;;;;;;5.15;4.55;;;;;;;;;;10415150;28;20489;-72
2022/09/01 00:27:26;;;;;;;5.80;5.20;;;;;;;;;;10418981;28;20477;-71
2022/09/01 00:32:27;;;;;;;5.10;4.60;;;;;;;;;;10403969;28;20303;-72
2022/09/01 00:37:29;;;;;;;5.07;4.57;;;;;;;;;;10422073;28;20571;-72
2022/09/01 00:42:29;;;;;;;5.00;4.60;;;;;;;;;;10404148;28;20075;-71
2022/09/01 00:47:29;;;;;;;5.15;4.65;;;;;;;;;;10414201;28;20539;-71
2022/09/01 00:52:35;;;;;;;6.80;5.07;;;;;;;;;;10421925;28;20036;-71
2022/09/01 00:57:36;;;;;;;5.60;5.00;;;;;;;;;;10409557;28;20320;-72
2022/09/01 01:02:37;;;;;;;4.82;4.43;;;;;;;;;;10413366;28;20160;-71
2022/09/01 01:07:41;;;;;;;6.07;5.10;;;;;;;;;;11039946;23;20567;-72
2022/09/01 01:12:42;;;;;;;5.43;4.80;;;;;;;;;;10414294;28;20084;-71
2022/09/01 01:17:43;;;;;;;6.05;5.45;;;;;;;;;;10407776;28;20148;-72
2022/09/01 01:23:01;;;;;;;5.63;4.80;;;;;;;;;;10415986;28;20056;-71
2022/09/01 01:28:11;;;;;;;6.85;5.60;;;;;;;;;;10399055;28;20401;-72
2022/09/01 01:33:11;;;;;;;5.70;5.18;;;;;;;;;;10406742;28;20048;-72
2022/09/01 01:38:14;;;;;;;6.10;5.15;;;;;;;;;;10390429;28;20061;-71
2022/09/01 01:43:18;;;;;;;5.43;4.77;;;;;;;;;;10410029;28;20037;-71
2022/09/01 01:48:23;;;;;;;6.10;5.05;;;;;;;;;;10407773;28;20049;-72
2022/09/01 01:53:23;;;;;;;5.60;5.20;;;;;;;;;;10400857;28;20727;-72
2022/09/01 01:58:27;;;;;;;6.38;5.78;;;;;;;;;;10420898;28;20029;-72
2022/09/01 02:03:33;;;;;;;6.43;5.40;;;;;;;;;;10420948;28;20046;-72
2022/09/01 02:08:35;;;;;;;5.95;5.40;;;;;;;;;;10407260;28;20079;-72
2022/09/01 02:13:35;;;;;;;6.07;5.47;;;;;;;;;;10402343;28;20072;-71
2022/09/01 02:18:39;;;;;;;5.78;5.28;;;;;;;;;;10416723;28;20048;-71
2022/09/01 02:23:40;;;;;;;5.32;4.82;;;;;;;;;;10419936;28;20063;-73
2022/09/01 02:28:42;;;;;;;5.68;4.57;;;;;;;;;;10413389;28;20123;-72
2022/09/01 02:33:44;;;;;;;6.80;6.03;;;;;;;;;;10410594;28;20073;-70
2022/09/01 02:38:47;;;;;;;5.90;5.30;;;;;;;;;;10403717;28;20805;-71
2022/09/01 02:43:48;;;;;;;5.80;5.20;;;;;;;;;;10421215;28;20045;-70
2022/09/01 02:48:50;;;;;;;7.03;5.50;;;;;;;;;;10411075;28;20041;-71
2022/09/01 02:53:51;;;;;;;6.88;5.47;;;;;;;;;;10419953;28;20057;-71
2022/09/01 02:58:52;;;;;;;5.35;4.70;;;;;;;;;;10386608;28;20393;-74
2022/09/01 03:03:54;;;;;;;6.07;5.47;;;;;;;;;;10424144;28;20037;-72
2022/09/01 03:08:58;;;;;;;6.97;6.37;;;;;;;;;;10418859;28;20499;-72
2022/09/01 03:13:58;;;;;;;7.38;6.68;;;;;;;;;;10418898;28;20759;-70
2022/09/01 03:18:59;;;;;;;6.55;5.95;;;;;;;;;;10419767;28;20036;-73
2022/09/01 03:24:02;;;;;;;6.45;5.90;;;;;;;;;;10411480;28;20033;-73
2022/09/01 03:29:03;;;;;;;6.20;5.60;;;;;;;;;;10412229;28;20098;-72
2022/09/01 03:34:04;;;;;;;6.20;5.60;;;;;;;;;;10400874;28;20373;-72
2022/09/01 03:39:09;;;;;;;6.93;6.22;;;;;;;;;;10407762;28;20049;-74
2022/09/01 03:44:10;;;;;;;5.97;5.38;;;;;;;;;;10409622;28;20029;-72
2022/09/01 03:49:14;;;;;;;6.18;5.57;;;;;;;;;;10419518;28;20056;-72
2022/09/01 03:54:15;;;;;;;6.28;5.63;;;;;;;;;;10428309;28;20041;-74
2022/09/01 03:59:18;;;;;;;6.93;5.63;;;;;;;;;;10413292;28;20515;-74
2022/09/01 04:04:20;;;;;;;7.03;6.32;;;;;;;;;;10422978;28;20296;-73
2022/09/01 04:09:21;;;;;;;8.07;6.00;;;;;;;;;;10425003;28;20461;-71
2022/09/01 04:14:24;;;;;;;7.28;6.32;;;;;;;;;;10413070;28;20041;-71
2022/09/01 04:19:25;;;;;;;7.00;6.30;;;;;;;;;;10400360;28;20041;-71
2022/09/01 04:24:28;;;;;;;7.05;6.38;;;;;;;;;;10396728;28;20056;-70
2022/09/01 04:29:30;;;;;;;6.97;6.00;;;;;;;;;;10395566;28;20081;-71
2022/09/01 04:34:37;;;;;;;7.13;6.43;;;;;;;;;;10399863;28;20041;-71
2022/09/01 04:39:38;;;;;;;6.40;5.80;;;;;;;;;;10414063;28;20103;-71
2022/09/01 04:44:39;;;;;;;7.32;6.57;;;;;;;;;;10413250;28;20049;-71
2022/09/01 04:49:40;;;;;;;7.53;6.32;;;;;;;;;;10404626;28;20507;-71
2022/09/01 04:54:40;;;;;;;7.05;6.45;;;;;;;;;;10414067;28;20045;-72
2022/09/01 04:59:42;;;;;;;7.55;6.68;;;;;;;;;;10413673;28;20048;-71
2022/09/01 05:04:45;;;;;;;7.80;6.22;;;;;;;;;;10411962;28;20040;-71
2022/09/01 05:09:46;;;;;;;6.93;6.00;;;;;;;;;;10403710;28;20074;-71
2022/09/01 05:14:56;;;;;;;7.22;6.60;;;;;;;;;;10399525;28;20148;-71
2022/09/01 05:19:57;;;;;;;7.18;6.47;;;;;;;;;;10412361;28;20436;-72
2022/09/01 05:25:10;;;;;;;8.02;6.53;;;;;;;;;;10413714;28;20349;-71
2022/09/01 05:30:12;;;;;;;6.72;6.07;;;;;;;;;;10398850;28;20048;-72
2022/09/01 05:35:12;;;;;;;7.32;6.28;;;;;;;;;;10405940;28;20037;-72
2022/09/01 05:40:14;;;;;;;6.45;5.85;;;;;;;;;;10428739;28;20037;-71
2022/09/01 05:45:19;;;;;;;6.18;5.57;;;;;;;;;;10404695;28;20184;-73
2022/09/01 05:50:20;;;;;;;5.72;5.22;;;;;;;;;;10416199;28;20049;-72
2022/09/01 05:55:21;;;;;;;5.70;5.20;;;;;;;;;;10406497;28;20037;-71
2022/09/01 06:00:22;;;;;;;6.22;5.22;;;;;;;;;;10424950;28;20124;-71
2022/09/01 06:05:23;;;;;;;7.53;4.82;;;;;;;;;;10421020;28;20033;-72
2022/09/01 06:10:28;;;;;;;4.93;4.43;;;;;;;;;;10396191;28;20140;-71
2022/09/01 06:15:31;;;;;;;6.30;4.70;;;;;;;;;;10416423;28;20136;-72
2022/09/01 06:20:32;;;;;;;5.78;5.18;;;;;;;;;;10405285;28;20037;-71
2022/09/01 06:25:36;;;;;;;6.60;5.75;;;;;;;;;;10416361;28;20496;-73
2022/09/01 06:30:38;;;;;;;6.68;4.50;;;;;;;;;;10394376;28;20132;-71
2022/09/01 06:35:43;;;;;;;5.20;4.70;;;;;;;;;;10420158;28;20124;-71
2022/09/01 06:40:45;;;;;;;4.85;4.38;;;;;;;;;;10409243;28;20047;-72
2022/09/01 06:45:53;;;;;;;6.10;4.50;;;;;;;;;;10410262;28;20041;-72
2022/09/01 06:50:58;;;;;;;4.78;4.20;;;;;;;;;;10397173;28;20068;-72
2022/09/01 06:55:59;;;;;;;4.65;4.15;;;;;;;;;;10410425;28;20457;-71
2022/09/01 07:01:04;;;;;;;6.28;4.47;;;;;;;;;;10411939;28;20052;-71
2022/09/01 07:06:06;;;;;;;4.60;4.20;;;;;;;;;;10405995;28;20075;-71
2022/09/01 07:11:26;;;;;;;5.25;4.28;;;;;;;;;;10412852;28;20038;-72
2022/09/01 07:16:29;;;;;;;4.53;4.10;;;;;;;;;;10397401;28;20488;-72
2022/09/01 07:21:32;;;;;;;4.75;4.30;;;;;;;;;;10410721;28;20088;-71
2022/09/01 07:26:34;;;;;;;5.30;3.92;;;;;;;;;;10406072;28;20072;-72
2022/09/01 07:31:40;;;;;;;10.05;4.40;;;;;;;;;;10420245;28;20171;-72
2022/09/01 07:36:41;;;;;;;7.30;6.10;;;;;;;;;;10418909;28;20040;-71
2022/09/01 07:41:43;;;;;;;5.35;3.67;;;;;;;;;;10415433;28;20041;-69
2022/09/01 07:47:18;;;;;;;5.50;4.10;;;;;;;;;;10416767;28;20404;-70
2022/09/01 07:52:19;;;;;;;4.77;3.73;;;;;;;;;;10400483;28;20038;-71
2022/09/01 07:57:21;;;;;;;5.35;4.13;;;;;;;;;;10413784;28;20042;-72
2022/09/01 08:02:23;;;;;;;4.05;3.70;;;;;;;;;;10392562;28;20050;-71
2022/09/01 08:07:24;;;;;;;6.07;4.82;;;;;;;;;;10413123;28;20123;-72
2022/09/01 08:12:24;;;;;;;5.25;4.75;;;;;;;;;;10411522;28;20610;-69
2022/09/01 08:17:26;;;;;;;3.58;3.20;;;;;;;;;;10415395;28;20049;-72
2022/09/01 08:22:28;;;;;;;4.07;2.97;;;;;;;;;;10419095;28;20041;-73
2022/09/01 08:27:35;;;;;;;3.00;2.67;;;;;;;;;;10413687;28;20041;-70
2022/09/01 08:32:36;;;;;;;3.97;2.97;;;;;;;;;;10414869;28;20039;-71
2022/09/01 08:37:36;;;;;;;3.63;3.00;;;;;;;;;;10404862;28;20047;-70
2022/09/01 08:42:58;;;;;;;3.20;2.90;;;;;;;;;;10400506;28;20106;-71
2022/09/01 08:48:10;;;;;;;3.10;2.90;;;;;;;;;;10415731;28;20045;-72
2022/09/01 08:53:27;;;;;;;2.90;2.70;;;;;;;;;;10413926;28;20045;-71
2022/09/01 08:58:29;;;;;;;2.97;2.78;;;;;;;;;;10411318;28;20449;-71
2022/09/01 09:03:58;;;;;;;3.35;2.78;;;;;;;;;;10420254;28;20040;-70
2022/09/01 09:09:03;;;;;;;3.22;2.92;;;;;;;;;;10411654;28;20187;-72
2022/09/01 09:14:12;;;;;;;2.83;2.63;;;;;;;;;;10409416;28;20049;-71
2022/09/01 09:19:18;;;;;;;3.95;2.97;;;;;;;;;;10405130;28;20033;-70
2022/09/01 09:24:45;;;;;;;2.90;2.50;;;;;;;;;;10413922;28;20466;-71
2022/09/01 09:29:47;;;;;;;2.95;2.70;;;;;;;;;;10387162;28;20488;-71
2022/09/01 09:34:48;;;;;;;3.20;2.40;;;;;;;;;;10415979;28;20029;-69
2022/09/01 09:40:18;;;;;;;2.95;2.30;;;;;;;;;;10418777;28;20060;-71
2022/09/01 09:45:23;;;;;;;4.50;3.20;;;;;;;;;;10406396;28;20136;-71
2022/09/01 09:50:36;;;;;;;3.05;2.00;;;;;;;;;;10413946;28;20189;-70
2022/09/01 09:55:48;;;;;;;11.90;8.75;;;;;;;;;;10407195;28;20030;-70
2022/09/01 10:01:01;;;;;;;2.87;2.53;;;;;;;;;;10416694;28;20037;-69
2022/09/01 10:06:02;;;;;;;;;;;;;;;;;;10409288;28;20470;-72
2022/09/01 10:11:03;;;;;;;2.70;2.40;;;;;;;;;;10421260;28;19925;-73
2022/09/01 10:16:07;;;;;;;2.65;2.38;;;;;;;;;;10386665;28;20043;-74
2022/09/01 10:21:09;;;;;;;2.75;2.50;;;;;;;;;;10411936;28;20061;-74
2022/09/01 10:26:18;;;;;;;2.38;2.17;;;;;;;;;;10416803;28;20570;-74
2022/09/01 10:31:19;;;;;;;3.10;2.70;;;;;;;;;;10407237;28;20520;-71
2022/09/01 10:36:21;;;;;;;2.95;2.70;;;;;;;;;;10414920;28;20045;-73
2022/09/01 10:41:40;;;;;;;2.70;2.50;;;;;;;;;;10411535;28;20044;-74
2022/09/01 10:46:44;;;;;;;3.05;2.40;;;;;;;;;;10416359;28;20048;-74
2022/09/01 10:51:45;;;;;;;3.33;2.78;;;;;;;;;;10404786;28;20554;-74
2022/09/01 10:56:47;;;;;;;3.25;2.40;;;;;;;;;;10413235;28;20104;-74
2022/09/01 11:01:47;;;;;;;3.30;2.47;;;;;;;;;;10404759;28;20099;-73
2022/09/01 11:06:52;;;;;;;2.67;2.47;;;;;;;;;;10422122;28;20045;-71
2022/09/01 11:12:04;;;;;;;2.88;2.50;;;;;;;;;;10422280;28;20025;-72
2022/09/01 11:17:19;;;;;;;3.13;2.93;;;;;;;;;;10424049;28;20496;-73
2022/09/01 11:22:19;;;;;;;3.28;2.55;;;;;;;;;;10416254;28;20500;-70
2022/09/01 11:27:38;;;;;;;2.67;2.47;;;;;;;;;;10416992;28;20049;-71
2022/09/01 11:32:40;;;;;;;3.10;2.90;;;;;;;;;;10403603;28;20133;-71
2022/09/01 11:37:40;;;;;;;3.22;2.83;;;;;;;;;;10412826;28;20037;-72
2022/09/01 11:42:42;;;;;;;3.60;2.85;;;;;;;;;;10420082;28;20469;-72
2022/09/01 11:47:45;;;;;;;3.28;3.05;;;;;;;;;;10412710;28;20187;-71
2022/09/01 11:52:53;;;;;;;3.33;3.03;;;;;;;;;;10410281;28;20056;-73
2022/09/01 11:57:54;;;;;;;3.13;2.92;;;;;;;;;;10419173;28;20038;-71
2022/09/01 12:02:54;;;;;;;3.10;2.80;;;;;;;;;;10413504;28;20045;-70
2022/09/01 12:07:55;;;;;;;3.20;2.90;;;;;;;;;;10411166;28;21304;-71
2022/09/01 12:12:59;;;;;;;3.05;2.85;;;;;;;;;;10415814;28;20307;-71
2022/09/01 12:18:12;;;;;;;3.20;2.90;;;;;;;;;;10406291;28;20045;-72
2022/09/01 12:23:26;;;;;;;3.15;2.85;;;;;;;;;;10416184;28;20033;-71
2022/09/01 12:28:29;;;;;;;3.45;2.95;;;;;;;;;;10413602;28;20049;-73
2022/09/01 12:33:31;;;;;;;3.22;2.72;;;;;;;;;;10419906;28;20040;-74
2022/09/01 12:38:31;;;;;;;3.33;3.13;;;;;;;;;;10423683;28;20393;-72
2022/09/01 12:43:38;;;;;;;3.47;2.90;;;;;;;;;;10421617;28;20033;-72
2022/09/01 12:48:39;;;;;;;3.92;3.10;;;;;;;;;;10415949;28;20399;-71
2022/09/01 12:53:40;;;;;;;4.27;3.30;;;;;;;;;;10409419;28;20053;-71
2022/09/01 12:58:41;;;;;;;3.28;3.08;;;;;;;;;;10418825;28;20111;-71
2022/09/01 13:03:42;;;;;;;6.03;4.87;;;;;;;;;;10404604;28;20036;-72
2022/09/01 13:08:42;;;;;;;3.70;3.40;;;;;;;;;;10416146;28;20037;-73
2022/09/01 13:13:43;;;;;;;4.80;3.38;;;;;;;;;;10406369;28;20048;-71
2022/09/01 13:18:43;;;;;;;3.60;3.30;;;;;;;;;;10421313;28;20025;-71
2022/09/01 13:23:45;;;;;;;3.40;3.08;;;;;;;;;;10414038;28;20295;-71
2022/09/01 13:28:46;;;;;;;3.08;2.70;;;;;;;;;;10419554;28;20081;-71
2022/09/01 13:33:46;;;;;;;3.00;2.80;;;;;;;;;;10415316;28;20128;-71
2022/09/01 13:38:47;;;;;;;3.80;2.70;;;;;;;;;;10411040;28;20400;-72
2022/09/01 13:43:47;;;;;;;3.67;2.90;;;;;;;;;;10416358;28;20560;-70
2022/09/01 13:48:50;;;;;;;3.53;2.90;;;;;;;;;;10397452;28;20049;-72
2022/09/01 13:53:52;;;;;;;4.10;2.83;;;;;;;;;;10413409;28;20139;-71
2022/09/01 13:58:52;;;;;;;3.10;2.40;;;;;;;;;;10395330;28;20037;-72
2022/09/01 14:03:52;;;;;;;2.93;2.70;;;;;;;;;;10419681;28;20037;-72
2022/09/01 14:08:53;;;;;;;2.70;2.50;;;;;;;;;;10410897;28;20049;-71
2022/09/01 14:13:53;;;;;;;3.10;2.20;;;;;;;;;;10414065;28;20034;-71
2022/09/01 14:18:53;;;;;;;3.72;2.40;;;;;;;;;;10416317;28;20041;-70
2022/09/01 14:23:54;;;;;;;2.50;2.30;;;;;;;;;;10412299;28;20033;-72
2022/09/01 14:28:54;;;;;;;2.75;2.38;;;;;;;;;;10418325;28;20048;-71
2022/09/01 14:33:55;;;;;;;2.80;2.60;;;;;;;;;;10402210;28;20227;-72
2022/09/01 14:38:55;;;;;;;3.23;2.77;;;;;;;;;;10413576;28;20046;-73
2022/09/01 14:44:01;;;;;;;2.80;2.60;;;;;;;;;;10417830;28;20374;-72
2022/09/01 14:49:03;;;;;;;3.08;2.53;;;;;;;;;;10424013;28;20073;-72
2022/09/01 14:54:03;;;;;;;;;;;;;;;;;;10423359;28;20731;-71
2022/09/01 14:59:03;;;;;;;3.03;2.67;;;;;;;;;;10425750;28;19917;-72
2022/09/01 15:04:04;;;;;;;4.20;3.83;;;;;;;;;;10419103;28;20033;-73
2022/09/01 15:09:04;;;;;;;4.20;2.85;;;;;;;;;;10414333;28;20124;-72
2022/09/01 15:14:05;;;;;;;3.47;3.17;;;;;;;;;;10423273;28;20621;-73
2022/09/01 15:19:09;;;;;;;3.80;2.97;;;;;;;;;;10387079;28;20291;-73
2022/09/01 15:24:10;;;;;;;2.90;2.70;;;;;;;;;;10407001;28;20046;-72
2022/09/01 15:29:12;;;;;;;2.90;2.58;;;;;;;;;;10417765;28;20071;-72
2022/09/01 15:34:12;;;;;;;3.10;2.80;;;;;;;;;;10423441;28;20050;-71
2022/09/01 15:39:13;;;;;;;3.10;2.80;;;;;;;;;;10412202;28;20464;-71
2022/09/01 15:44:13;;;;;;;3.75;2.65;;;;;;;;;;10414237;28;20744;-72
2022/09/01 15:49:14;;;;;;;3.35;3.05;;;;;;;;;;10417044;28;20121;-73
2022/09/01 15:54:16;;;;;;;3.30;2.70;;;;;;;;;;10407016;28;20045;-73
2022/09/01 15:59:16;;;;;;;2.90;2.70;;;;;;;;;;10419870;28;20133;-71
2022/09/01 16:04:17;;;;;;;2.93;2.73;;;;;;;;;;10402823;28;20030;-71
2022/09/01 16:09:19;;;;;;;3.17;2.78;;;;;;;;;;10417808;28;20390;-72
2022/09/01 16:14:22;;;;;;;2.70;2.50;;;;;;;;;;10417976;28;20033;-73
2022/09/01 16:19:23;;;;;;;;;;;;;;;;;;10418820;28;20045;-71
2022/09/01 16:24:24;;;;;;;2.97;2.63;;;;;;;;;;10413658;28;19956;-73
2022/09/01 16:29:31;;;;;;;3.95;2.90;;;;;;;;;;10411753;28;20883;-72
2022/09/01 16:34:32;;;;;;;3.13;2.80;;;;;;;;;;10416798;28;20169;-72
2022/09/01 16:39:32;;;;;;;2.97;2.67;;;;;;;;;;10414299;28;20029;-72
2022/09/01 16:44:55;;;;;;;2.70;2.50;;;;;;;;;;10423222;28;20047;-71
2022/09/01 16:50:03;;;;;;;3.28;2.70;;;;;;;;;;10405895;28;20183;-72
2022/09/01 16:55:12;;;;;;;8.38;7.57;;;;;;;;;;10425480;28;20417;-72
2022/09/01 17:00:14;;;;;;;4.20;3.20;;;;;;;;;;10423095;28;20037;-71
2022/09/01 17:05:23;;;;;;;2.80;2.60;;;;;;;;;;10414015;28;20036;-71
2022/09/01 17:10:33;;;;;;;2.70;2.50;;;;;;;;;;10412281;28;20045;-71
2022/09/01 17:15:39;;;;;;;2.65;2.45;;;;;;;;;;10408291;28;20049;-71
2022/09/01 17:20:41;;;;;;;2.38;2.17;;;;;;;;;;10408062;28;20366;-72
2022/09/01 17:25:49;;;;;;;3.07;2.73;;;;;;;;;;10404904;28;20138;-71
2022/09/01 17:30:59;;;;;;;2.83;2.45;;;;;;;;;;10409310;28;20467;-72
2022/09/01 17:36:23;;;;;;;3.25;2.60;;;;;;;;;;10394585;28;20033;-72
2022/09/01 17:41:43;;;;;;;2.63;2.40;;;;;;;;;;10418780;28;20047;-71
2022/09/01 17:46:48;;;;;;;4.25;3.85;;;;;;;;;;10408331;28;20144;-73
2022/09/01 17:52:06;;;;;;;3.15;2.90;;;;;;;;;;10412103;28;20071;-71
2022/09/01 17:57:07;;;;;;;3.00;2.67;;;;;;;;;;10412799;28;20049;-72
2022/09/01 18:02:18;;;;;;;3.13;2.83;;;;;;;;;;10418025;28;20083;-72
2022/09/01 18:07:19;;;;;;;4.97;3.40;;;;;;;;;;10401504;28;20052;-73
2022/09/01 18:12:25;;;;;;;3.30;3.00;;;;;;;;;;10412022;28;20052;-72
2022/09/01 18:17:34;;;;;;;3.15;2.92;;;;;;;;;;10404360;28;20037;-72
2022/09/01 18:22:40;;;;;;;3.97;3.30;;;;;;;;;;10407490;28;20133;-73
2022/09/01 18:27:42;;;;;;;3.40;3.10;;;;;;;;;;10411463;28;20052;-73
2022/09/01 18:32:54;;;;;;;3.78;3.20;;;;;;;;;;10410645;28;20052;-72
2022/09/01 18:38:13;;;;;;;3.92;3.50;;;;;;;;;;10413662;28;20488;-72
2022/09/01 18:43:19;;;;;;;3.58;3.20;;;;;;;;;;10401704;28;20033;-74
2022/09/01 18:48:38;;;;;;;4.00;3.10;;;;;;;;;;10407953;28;20120;-72
2022/09/01 18:53:58;;;;;;;3.72;3.35;;;;;;;;;;10400323;28;20095;-72
2022/09/01 18:59:17;;;;;;;3.75;3.45;;;;;;;;;;10414122;28;20026;-73
2022/09/01 19:04:28;;;;;;;3.50;3.20;;;;;;;;;;10392539;28;20113;-72
2022/09/01 19:09:33;;;;;;;3.80;3.20;;;;;;;;;;10412052;28;20044;-72
2022/09/01 19:14:52;;;;;;;4.70;3.50;;;;;;;;;;10416875;28;20036;-73
2022/09/01 19:19:52;;;;;;;6.85;3.17;;;;;;;;;;10397318;28;20033;-73
2022/09/01 19:25:32;;;;;;;3.78;2.97;;;;;;;;;;10414432;28;20382;-74
2022/09/01 19:30:16;;;;;;;3.10;2.90;;;;;;;;;;10412520;28;20657;-73
2022/09/01 19:35:17;;;;;;;3.47;3.17;;;;;;;;;;10412520;28;20041;-73
2022/09/01 19:40:21;;;;;;;5.82;4.80;;;;;;;;;;10400524;28;20056;-74
2022/09/01 19:45:25;;;;;;;3.13;2.83;;;;;;;;;;10409754;28;20034;-72
2022/09/01 19:50:30;;;;;;;3.20;2.90;;;;;;;;;;10407047;28;20521;-72
2022/09/01 19:55:31;;;;;;;4.07;3.30;;;;;;;;;;10418181;28;20452;-71
2022/09/01 20:00:37;;;;;;;3.00;2.70;;;;;;;;;;10419956;28;20094;-72
2022/09/01 20:05:40;;;;;;;3.30;2.80;;;;;;;;;;10397370;28;20076;-73
2022/09/01 20:10:43;;;;;;;4.25;3.85;;;;;;;;;;10413164;28;20048;-71
2022/09/01 20:15:47;;;;;;;3.03;2.70;;;;;;;;;;10404821;28;20045;-78
2022/09/01 20:20:49;;;;;;;2.83;2.60;;;;;;;;;;10392536;28;20429;-76
2022/09/01 20:26:02;;;;;;;3.30;2.60;;;;;;;;;;10417910;28;20045;-78
2022/09/01 20:31:07;;;;;;;3.03;2.72;;;;;;;;;;10403043;28;20067;-77
2022/09/01 20:36:19;;;;;;;3.85;2.70;;;;;;;;;;10424764;28;20092;-78
2022/09/01 20:41:33;;;;;;;2.90;2.60;;;;;;;;;;10424428;28;20060;-77
2022/09/01 20:46:33;;;;;;;3.15;2.25;;;;;;;;;;10427187;28;20350;-77
2022/09/01 20:51:43;;;;;;;3.00;2.70;;;;;;;;;;10417923;28;20160;-77
2022/09/01 20:57:02;;;;;;;4.90;2.60;;;;;;;;;;10428435;28;20280;-76
2022/09/01 21:02:05;;;;;;;3.53;2.72;;;;;;;;;;10433725;28;20061;-77
2022/09/01 21:07:14;;;;;;;2.72;2.40;;;;;;;;;;10428870;28;20140;-77
2022/09/01 21:12:14;;;;;;;2.55;2.10;;;;;;;;;;10440853;28;20033;-78
2022/09/01 21:17:35;;;;;;;3.03;2.17;;;;;;;;;;10435751;28;20489;-79
2022/09/01 21:22:35;;;;;;;2.58;2.38;;;;;;;;;;10369998;28;20307;-79
2022/09/01 21:27:43;;;;;;;2.33;2.13;;;;;;;;;;10398568;28;20063;-77
2022/09/01 21:32:44;;;;;;;2.35;2.15;;;;;;;;;;10412993;28;20143;-77
2022/09/01 21:37:44;;;;;;;2.63;2.20;;;;;;;;;;10411432;28;20754;-78
2022/09/01 21:42:53;;;;;;;2.70;1.98;;;;;;;;;;10407840;28;20077;-78
2022/09/01 21:47:54;;;;;;;3.78;2.10;;;;;;;;;;10421357;28;20069;-78
2022/09/01 21:52:54;;;;;;;2.50;2.00;;;;;;;;;;10404136;28;20132;-77
2022/09/01 21:57:55;;;;;;;1.80;1.70;;;;;;;;;;10425850;28;20109;-78
2022/09/01 22:02:58;;;;;;;2.70;2.03;;;;;;;;;;10418684;28;20087;-78
2022/09/01 22:07:58;;;;;;;2.20;2.00;;;;;;;;;;10429890;28;20299;-77
2022/09/01 22:13:02;;;;;;;2.78;1.90;;;;;;;;;;10427550;28;20036;-76
2022/09/01 22:18:03;;;;;;;2.38;2.00;;;;;;;;;;10435837;28;20040;-78
2022/09/01 22:23:03;;;;;;;2.65;1.90;;;;;;;;;;10458978;28;20035;-78
2022/09/01 22:28:04;;;;;;;2.17;1.98;;;;;;;;;;10412164;28;20029;-76
2022/09/01 22:33:06;;;;;;;3.30;1.85;;;;;;;;;;10419611;28;20799;-76
2022/09/01 22:38:07;;;;;;;2.13;2.03;;;;;;;;;;10400034;28;20125;-76
2022/09/01 22:43:07;;;;;;;2.38;2.00;;;;;;;;;;10413001;28;20049;-77
2022/09/01 22:48:07;;;;;;;2.77;2.10;;;;;;;;;;10405618;28;20196;-78
2022/09/01 22:53:09;;;;;;;2.75;1.73;;;;;;;;;;10416757;28;20299;-78
2022/09/01 22:58:10;;;;;;;1.85;1.67;;;;;;;;;;10420518;28;20445;-76
2022/09/01 23:03:11;;;;;;;3.13;1.90;;;;;;;;;;10412869;28;20538;-79
2022/09/01 23:08:12;;;;;;;3.40;1.77;;;;;;;;;;10415708;28;20090;-77
2022/09/01 23:13:12;;;;;;;2.95;1.98;;;;;;;;;;10409368;28;20559;-78
2022/09/01 23:18:12;;;;;;;2.50;1.90;;;;;;;;;;10419493;28;20099;-77
2022/09/01 23:23:14;;;;;;;2.15;1.80;;;;;;;;;;10407362;28;20447;-78
2022/09/01 23:28:15;;;;;;;2.15;1.70;;;;;;;;;;10424091;28;20394;-77
2022/09/01 23:33:16;;;;;;;2.30;1.50;;;;;;;;;;10419972;28;20419;-78
2022/09/01 23:38:18;;;;;;;2.20;1.52;;;;;;;;;;10416863;28;20091;-77
2022/09/01 23:43:19;;;;;;;2.58;1.80;;;;;;;;;;10425077;28;20044;-77
2022/09/01 23:48:20;;;;;;;3.25;1.70;;;;;;;;;;10416246;28;20040;-77
2022/09/01 23:53:24;;;;;;;1.98;1.77;;;;;;;;;;10419594;28;20037;-79
2022/09/01 23:58:26;;;;;;;2.35;1.85;;;;;;;;;;10417784;28;20029;-77
